createdAt,value
2023-06-29T00:00:58.559Z,3.15
2023-06-29T00:03:25.260Z,2.60
2023-06-29T00:05:51.917Z,3.50
2023-06-29T00:08:18.896Z,5.40
2023-06-29T00:10:45.544Z,4.43
2023-06-29T00:13:12.146Z,2.75
2023-06-29T00:15:38.823Z,3.08
2023-06-29T00:18:05.488Z,4.65
2023-06-29T00:20:32.160Z,2.63
2023-06-29T00:23:00.453Z,3.30
2023-06-29T00:25:27.189Z,4.40
2023-06-29T00:27:53.832Z,3.20
2023-06-29T00:30:20.613Z,3.78
2023-06-29T00:32:48.220Z,3.25
2023-06-29T00:35:15.304Z,3.08
2023-06-29T00:37:43.509Z,2.75
2023-06-29T00:40:10.998Z,2.35
2023-06-29T00:42:38.025Z,2.60
2023-06-29T00:45:05.999Z,3.50
2023-06-29T00:47:36.275Z,4.35
2023-06-29T00:50:03.122Z,2.50
2023-06-29T00:52:29.994Z,3.85
2023-06-29T00:54:57.670Z,3.03
2023-06-29T00:57:25.232Z,2.40
2023-06-29T00:59:51.918Z,3.25
2023-06-29T01:02:18.755Z,3.92
2023-06-29T01:04:46.906Z,2.80
2023-06-29T01:07:58.428Z,2.50
2023-06-29T01:12:53.581Z,2.50
2023-06-29T01:15:21.776Z,3.08
2023-06-29T01:17:49.475Z,2.42
2023-06-29T01:20:16.677Z,5.85
2023-06-29T01:22:49.227Z,2.22
2023-06-29T01:25:15.937Z,2.58
2023-06-29T01:27:44.704Z,6.47
2023-06-29T01:30:12.712Z,2.33
2023-06-29T01:32:39.841Z,3.10
2023-06-29T01:35:11.122Z,2.35
2023-06-29T01:37:54.407Z,2.67
2023-06-29T01:40:26.221Z,3.90
2023-06-29T01:42:53.665Z,3.70
2023-06-29T01:45:21.522Z,2.42
2023-06-29T01:47:48.298Z,1.85
2023-06-29T01:50:17.423Z,4.03
2023-06-29T01:52:45.112Z,3.65
2023-06-29T01:55:12.326Z,3.80
2023-06-29T01:57:39.726Z,4.95
2023-06-29T02:00:07.237Z,3.70
2023-06-29T02:02:43.044Z,3.53
2023-06-29T02:05:09.867Z,1.67
2023-06-29T02:07:36.651Z,3.15
2023-06-29T02:10:03.493Z,4.05
2023-06-29T02:12:31.196Z,3.45
2023-06-29T02:14:58.045Z,4.93
2023-06-29T02:17:24.718Z,2.08
2023-06-29T02:19:51.297Z,3.25
2023-06-29T02:22:17.983Z,3.97
2023-06-29T02:24:44.573Z,2.55
2023-06-29T02:27:11.265Z,3.47
2023-06-29T02:29:37.866Z,2.17
2023-06-29T02:32:04.922Z,5.80
2023-06-29T02:34:31.693Z,2.85
2023-06-29T02:36:58.537Z,4.35
2023-06-29T02:39:26.654Z,3.55
2023-06-29T02:41:54.026Z,2.42
2023-06-29T02:44:21.226Z,2.60
2023-06-29T02:46:47.946Z,4.25
2023-06-29T02:49:16.475Z,3.10
2023-06-29T02:51:45.242Z,4.10
2023-06-29T02:54:15.187Z,2.30
2023-06-29T02:56:41.823Z,2.42
2023-06-29T02:59:08.456Z,2.78
2023-06-29T03:01:35.132Z,2.63
2023-06-29T03:04:01.759Z,3.67
2023-06-29T03:06:28.481Z,3.38
2023-06-29T03:08:57.619Z,2.78
2023-06-29T03:11:24.693Z,3.53
2023-06-29T03:13:52.216Z,4.50
2023-06-29T03:16:18.863Z,3.40
2023-06-29T03:18:45.498Z,3.83
2023-06-29T03:21:17.780Z,2.33
2023-06-29T03:23:45.539Z,9.57
2023-06-29T03:26:12.257Z,3.58
2023-06-29T03:28:38.886Z,4.07
2023-06-29T03:31:06.273Z,3.25
2023-06-29T03:33:33.065Z,3.75
2023-06-29T03:35:59.671Z,3.38
2023-06-29T03:38:26.309Z,2.83
2023-06-29T03:40:52.919Z,2.70
2023-06-29T03:43:19.604Z,3.22
2023-06-29T03:45:46.299Z,3.25
2023-06-29T03:48:13.097Z,3.83
2023-06-29T03:50:39.925Z,1.92
2023-06-29T03:53:06.541Z,4.57
2023-06-29T03:55:33.204Z,3.47
2023-06-29T03:58:00.942Z,4.13
2023-06-29T04:00:27.714Z,2.95
2023-06-29T04:02:54.479Z,3.65
2023-06-29T04:05:21.523Z,2.60
2023-06-29T04:07:48.247Z,3.00
2023-06-29T04:10:14.869Z,1.92
2023-06-29T04:12:41.471Z,2.95
2023-06-29T04:15:08.652Z,2.22
2023-06-29T04:17:35.295Z,2.67
2023-06-29T04:20:01.958Z,3.97
2023-06-29T04:22:28.614Z,3.83
2023-06-29T04:24:55.389Z,4.93
2023-06-29T04:27:22.786Z,4.40
2023-06-29T04:29:50.362Z,4.40
2023-06-29T04:32:18.084Z,2.75
2023-06-29T04:34:49.217Z,5.57
2023-06-29T04:37:16.703Z,2.42
2023-06-29T04:39:51.938Z,2.55
2023-06-29T04:44:46.603Z,3.55
2023-06-29T04:47:14.654Z,3.25
2023-06-29T04:49:46.077Z,5.78
2023-06-29T04:52:13.923Z,3.47
2023-06-29T04:54:42.629Z,5.07
2023-06-29T04:57:10.309Z,5.13
2023-06-29T04:59:39.723Z,4.60
2023-06-29T05:02:07.243Z,2.92
2023-06-29T05:04:34.510Z,3.50
2023-06-29T05:07:01.958Z,3.38
2023-06-29T05:09:29.027Z,3.50
2023-06-29T05:11:56.287Z,3.17
2023-06-29T05:14:23.626Z,7.13
2023-06-29T05:16:50.827Z,3.53
2023-06-29T05:19:18.481Z,3.03
2023-06-29T05:21:45.486Z,4.95
2023-06-29T05:24:12.823Z,3.97
2023-06-29T05:26:40.195Z,7.25
2023-06-29T05:29:07.725Z,2.60
2023-06-29T05:31:35.308Z,9.52
2023-06-29T05:34:03.469Z,4.82
2023-06-29T05:36:32.063Z,5.22
2023-06-29T05:38:59.614Z,4.00
2023-06-29T05:41:27.820Z,3.85
2023-06-29T05:43:58.095Z,5.65
2023-06-29T05:46:26.456Z,7.47
2023-06-29T05:48:54.118Z,3.03
2023-06-29T05:51:21.948Z,3.15
2023-06-29T05:53:49.608Z,4.63
2023-06-29T05:56:17.105Z,3.35
2023-06-29T05:58:44.665Z,6.95
2023-06-29T06:01:12.716Z,6.30
2023-06-29T06:03:40.991Z,4.03
2023-06-29T06:06:08.908Z,4.75
2023-06-29T06:08:36.415Z,5.57
2023-06-29T06:11:04.445Z,7.03
2023-06-29T06:13:33.201Z,8.20
2023-06-29T06:16:01.585Z,6.10
2023-06-29T06:18:29.955Z,8.73
2023-06-29T06:20:57.441Z,6.90
2023-06-29T06:23:24.931Z,3.78
2023-06-29T06:25:52.914Z,6.78
2023-06-29T06:28:21.076Z,4.60
2023-06-29T06:30:49.560Z,8.02
2023-06-29T06:33:17.615Z,4.60
2023-06-29T06:35:45.937Z,5.50
2023-06-29T06:38:13.830Z,2.92
2023-06-29T06:40:42.690Z,3.38
2023-06-29T06:43:10.357Z,4.03
2023-06-29T06:45:38.986Z,2.80
2023-06-29T06:48:06.817Z,2.35
2023-06-29T06:50:35.403Z,2.83
2023-06-29T06:53:03.091Z,3.50
2023-06-29T06:55:31.629Z,3.50
2023-06-29T06:57:58.912Z,4.63
2023-06-29T07:00:27.991Z,2.97
2023-06-29T07:02:55.055Z,3.30
2023-06-29T07:05:22.116Z,2.63
2023-06-29T07:07:52.359Z,4.40
2023-06-29T07:10:19.845Z,3.78
2023-06-29T07:12:47.927Z,3.38
2023-06-29T07:15:15.432Z,2.92
2023-06-29T07:17:42.705Z,3.00
2023-06-29T07:25:12.847Z,3.03
2023-06-29T07:27:40.082Z,2.80
2023-06-29T07:30:08.241Z,3.63
2023-06-29T07:32:36.579Z,2.85
2023-06-29T07:35:06.021Z,3.25
2023-06-29T07:37:35.232Z,2.88
2023-06-29T07:40:03.987Z,3.08
2023-06-29T07:42:39.338Z,2.33
2023-06-29T07:45:07.721Z,2.83
2023-06-29T07:47:35.495Z,3.22
2023-06-29T07:50:02.930Z,2.58
2023-06-29T07:52:32.094Z,2.53
2023-06-29T07:54:59.510Z,2.25
2023-06-29T07:59:58.093Z,2.83
2023-06-29T08:02:26.002Z,2.25
2023-06-29T08:07:23.986Z,5.75
2023-06-29T08:09:51.966Z,4.35
2023-06-29T08:12:19.695Z,6.60
2023-06-29T08:14:47.487Z,4.68
2023-06-29T08:17:15.106Z,5.90
2023-06-29T08:19:42.424Z,5.85
2023-06-29T08:22:09.945Z,4.35
2023-06-29T08:24:36.951Z,4.32
2023-06-29T08:27:04.794Z,3.85
2023-06-29T08:29:32.664Z,4.53
2023-06-29T08:32:00.687Z,4.68
2023-06-29T08:34:28.298Z,3.17
2023-06-29T08:36:55.960Z,2.72
2023-06-29T08:39:22.904Z,3.55
2023-06-29T08:41:50.388Z,5.85
2023-06-29T08:44:20.026Z,5.45
2023-06-29T08:46:48.774Z,4.85
2023-06-29T08:49:18.284Z,4.85
2023-06-29T08:51:48.302Z,5.00
2023-06-29T08:54:17.369Z,4.03
2023-06-29T08:56:45.624Z,4.18
2023-06-29T08:59:12.854Z,4.57
2023-06-29T09:01:41.034Z,4.63
2023-06-29T09:04:08.314Z,4.47
2023-06-29T09:06:36.333Z,5.68
2023-06-29T09:09:03.871Z,4.53
2023-06-29T09:11:35.796Z,4.72
2023-06-29T09:14:07.896Z,4.13
2023-06-29T09:16:36.546Z,4.72
2023-06-29T09:19:07.933Z,5.82
2023-06-29T09:21:36.022Z,7.18
2023-06-29T09:24:04.681Z,6.03
2023-06-29T09:26:33.178Z,7.13
2023-06-29T09:29:01.239Z,6.90
2023-06-29T09:31:30.219Z,4.28
2023-06-29T09:33:58.250Z,4.63
2023-06-29T09:36:30.514Z,5.10
2023-06-29T09:38:57.909Z,6.63
2023-06-29T09:41:26.141Z,4.47
2023-06-29T09:43:54.708Z,3.78
2023-06-29T09:46:22.658Z,4.10
2023-06-29T09:51:23.441Z,3.78
2023-06-29T09:53:51.152Z,4.43
2023-06-29T09:56:19.139Z,3.80
2023-06-29T09:58:47.755Z,3.60
2023-06-29T10:01:17.551Z,3.50
2023-06-29T10:03:46.606Z,5.07
2023-06-29T10:06:18.490Z,4.30
2023-06-29T10:08:46.987Z,3.55
2023-06-29T10:11:15.010Z,3.17
2023-06-29T10:13:49.937Z,3.72
2023-06-29T10:16:21.318Z,3.70
2023-06-29T10:18:49.372Z,3.15
2023-06-29T10:21:17.072Z,4.20
2023-06-29T10:23:45.843Z,2.58
2023-06-29T10:26:14.611Z,2.90
2023-06-29T10:28:43.035Z,7.65
2023-06-29T10:31:10.602Z,2.75
2023-06-29T10:33:49.413Z,5.07
2023-06-29T10:36:17.393Z,3.22
2023-06-29T10:38:44.634Z,2.50
2023-06-29T10:41:31.847Z,4.03
2023-06-29T10:44:00.207Z,3.22
2023-06-29T10:46:46.135Z,2.80
2023-06-29T10:49:26.888Z,2.97
2023-06-29T10:52:02.333Z,3.17
2023-06-29T10:54:29.338Z,4.35
2023-06-29T10:57:01.517Z,2.60
2023-06-29T10:59:33.385Z,4.38
2023-06-29T11:02:01.440Z,2.95
2023-06-29T11:04:29.752Z,2.45
2023-06-29T11:06:57.986Z,2.45
2023-06-29T11:09:25.492Z,3.28
2023-06-29T11:11:54.591Z,3.42
2023-06-29T11:14:23.776Z,4.00
2023-06-29T11:16:54.826Z,3.72
2023-06-29T11:19:27.357Z,5.38
2023-06-29T11:21:55.713Z,4.68
2023-06-29T11:24:23.853Z,4.03
2023-06-29T11:26:51.075Z,5.20
2023-06-29T11:29:19.681Z,6.13
2023-06-29T11:31:47.130Z,5.13
2023-06-29T11:34:15.234Z,4.50
2023-06-29T11:36:50.336Z,5.07
2023-06-29T11:39:31.975Z,3.72
2023-06-29T11:41:59.630Z,4.88
2023-06-29T11:44:27.101Z,4.63
2023-06-29T11:49:26.317Z,5.28
2023-06-29T11:51:53.299Z,3.30
2023-06-29T11:54:20.217Z,4.18
2023-06-29T11:56:46.880Z,6.00
2023-06-29T11:59:13.764Z,4.18
2023-06-29T12:01:40.946Z,5.90
2023-06-29T12:04:08.584Z,4.65
2023-06-29T12:06:35.435Z,8.02
2023-06-29T12:09:11.005Z,6.90
2023-06-29T12:11:37.681Z,8.60
2023-06-29T12:14:04.506Z,8.75
2023-06-29T12:19:00.857Z,10.95
2023-06-29T12:21:27.677Z,9.00
2023-06-29T12:23:54.446Z,9.60
2023-06-29T12:26:22.387Z,10.70
2023-06-29T12:28:49.123Z,9.57
2023-06-29T12:31:15.775Z,9.50
2023-06-29T12:33:42.412Z,8.77
2023-06-29T12:36:09.090Z,8.68
2023-06-29T12:38:35.681Z,8.98
2023-06-29T12:41:02.486Z,9.52
2023-06-29T12:43:29.050Z,8.15
2023-06-29T12:45:55.675Z,7.38
2023-06-29T12:48:22.284Z,8.13
2023-06-29T12:50:49.133Z,7.97
2023-06-29T12:53:15.851Z,8.15
2023-06-29T12:55:42.487Z,8.07
2023-06-29T12:58:09.158Z,6.45
2023-06-29T13:00:35.900Z,5.72
2023-06-29T13:03:08.521Z,7.50
2023-06-29T13:05:35.454Z,6.45
2023-06-29T13:08:02.629Z,7.05
2023-06-29T13:10:31.147Z,5.95
2023-06-29T13:12:58.579Z,6.82
2023-06-29T13:15:25.382Z,5.55
2023-06-29T13:17:52.882Z,6.82
2023-06-29T13:20:19.616Z,5.65
2023-06-29T13:22:46.382Z,5.90
2023-06-29T13:25:13.366Z,5.80
2023-06-29T13:27:41.035Z,6.00
2023-06-29T13:30:08.748Z,6.25
2023-06-29T13:32:35.511Z,6.80
2023-06-29T13:35:02.211Z,5.07
2023-06-29T13:37:29.897Z,7.80
2023-06-29T13:39:56.624Z,5.60
2023-06-29T13:42:23.211Z,4.57
2023-06-29T13:44:50.269Z,5.53
2023-06-29T13:47:22.697Z,5.13
2023-06-29T13:49:49.982Z,6.03
2023-06-29T13:52:16.665Z,5.28
2023-06-29T13:54:43.738Z,5.63
2023-06-29T13:57:10.644Z,5.65
2023-06-29T13:59:37.232Z,5.95
2023-06-29T14:02:04.214Z,6.53
2023-06-29T14:04:30.884Z,6.68
2023-06-29T14:06:57.656Z,6.22
2023-06-29T14:09:26.036Z,5.43
2023-06-29T14:11:52.654Z,5.30
2023-06-29T14:14:20.128Z,5.68
2023-06-29T14:16:47.411Z,5.25
2023-06-29T14:19:15.162Z,4.70
2023-06-29T14:21:45.242Z,5.57
2023-06-29T14:24:12.559Z,6.28
2023-06-29T14:26:39.448Z,5.38
2023-06-29T14:29:06.771Z,5.03
2023-06-29T14:31:36.647Z,5.00
2023-06-29T14:34:04.641Z,4.10
2023-06-29T14:36:32.208Z,4.57
2023-06-29T14:39:00.017Z,4.22
2023-06-29T14:41:27.469Z,4.30
2023-06-29T14:43:55.936Z,5.28
2023-06-29T14:46:23.442Z,6.97
2023-06-29T14:48:51.696Z,4.00
2023-06-29T14:51:20.442Z,5.03
2023-06-29T14:53:48.572Z,4.13
2023-06-29T14:56:16.204Z,3.63
2023-06-29T14:58:43.810Z,4.95
2023-06-29T15:01:11.433Z,3.60
2023-06-29T15:03:39.974Z,3.42
2023-06-29T15:06:08.123Z,3.42
2023-06-29T15:08:36.354Z,3.63
2023-06-29T15:11:04.391Z,4.25
2023-06-29T15:13:32.159Z,3.50
2023-06-29T15:16:00.090Z,3.10
2023-06-29T15:18:27.238Z,3.90
2023-06-29T15:20:54.704Z,4.80
2023-06-29T15:23:22.109Z,4.10
2023-06-29T15:25:50.766Z,3.88
2023-06-29T15:28:18.644Z,4.03
2023-06-29T15:30:53.420Z,3.78
2023-06-29T15:33:22.109Z,3.35
2023-06-29T15:35:50.100Z,3.67
2023-06-29T15:38:22.524Z,2.60
2023-06-29T15:40:51.341Z,3.00
2023-06-29T15:43:19.209Z,3.63
2023-06-29T15:45:47.106Z,3.10
2023-06-29T15:48:15.948Z,2.20
2023-06-29T15:50:43.828Z,3.72
2023-06-29T15:53:11.474Z,3.50
2023-06-29T15:55:38.288Z,2.17
2023-06-29T15:58:04.893Z,3.20
2023-06-29T16:00:31.560Z,3.33
2023-06-29T16:02:58.343Z,2.78
2023-06-29T16:05:25.091Z,3.22
2023-06-29T16:07:52.714Z,2.33
2023-06-29T16:10:19.624Z,2.47
2023-06-29T16:12:46.300Z,3.70
2023-06-29T16:15:12.891Z,3.78
2023-06-29T16:17:39.768Z,2.50
2023-06-29T16:20:08.653Z,4.05
2023-06-29T16:22:36.218Z,2.78
2023-06-29T16:25:02.944Z,3.83
2023-06-29T16:27:29.608Z,5.15
2023-06-29T16:29:56.235Z,2.47
2023-06-29T16:32:22.931Z,3.40
2023-06-29T16:34:49.611Z,2.60
2023-06-29T16:37:16.195Z,2.50
2023-06-29T16:39:42.898Z,3.85
2023-06-29T16:42:09.635Z,3.70
2023-06-29T16:44:36.268Z,2.83
2023-06-29T16:47:03.081Z,2.50
2023-06-29T16:49:29.700Z,4.20
2023-06-29T16:51:56.315Z,4.20
2023-06-29T16:54:22.923Z,3.25
2023-06-29T16:56:49.648Z,2.20
2023-06-29T16:59:16.270Z,2.28
2023-06-29T17:01:42.849Z,3.25
2023-06-29T17:04:09.679Z,2.67
2023-06-29T17:06:36.910Z,3.58
2023-06-29T17:09:03.636Z,3.40
2023-06-29T17:11:30.362Z,2.72
2023-06-29T17:13:57.463Z,2.80
2023-06-29T17:16:24.243Z,2.92
2023-06-29T17:18:51.049Z,2.67
2023-06-29T17:21:18.519Z,3.28
2023-06-29T17:23:45.136Z,2.50
2023-06-29T17:26:11.757Z,2.97
2023-06-29T17:28:38.527Z,2.63
2023-06-29T17:31:05.400Z,3.50
2023-06-29T17:33:44.829Z,3.05
2023-06-29T17:36:19.837Z,2.50
2023-06-29T17:38:46.639Z,2.63
2023-06-29T17:41:13.358Z,2.30
2023-06-29T17:43:39.961Z,2.72
2023-06-29T17:46:06.599Z,2.40
2023-06-29T17:48:33.529Z,2.53
2023-06-29T17:51:12.639Z,2.35
2023-06-29T17:53:39.530Z,2.00
2023-06-29T17:56:06.231Z,2.15
2023-06-29T17:58:32.799Z,1.80
2023-06-29T18:00:59.755Z,2.17
2023-06-29T18:03:28.718Z,3.25
2023-06-29T18:05:56.711Z,2.28
2023-06-29T18:08:24.565Z,2.97
2023-06-29T18:10:52.619Z,2.92
2023-06-29T18:13:20.203Z,4.18
2023-06-29T18:15:48.624Z,2.00
2023-06-29T18:18:17.046Z,2.13
2023-06-29T18:20:45.460Z,4.18
2023-06-29T18:23:13.257Z,2.35
2023-06-29T18:25:40.710Z,2.88
2023-06-29T18:28:08.408Z,2.97
2023-06-29T18:30:36.173Z,2.17
2023-06-29T18:33:04.270Z,2.85
2023-06-29T18:35:32.446Z,2.70
2023-06-29T18:37:59.199Z,2.22
2023-06-29T18:40:28.163Z,2.28
2023-06-29T18:42:55.126Z,2.60
2023-06-29T18:45:24.070Z,2.67
2023-06-29T18:47:50.749Z,4.85
2023-06-29T18:50:17.444Z,1.85
2023-06-29T18:52:44.215Z,2.63
2023-06-29T18:55:10.825Z,3.60
2023-06-29T18:57:37.437Z,2.47
2023-06-29T19:00:04.793Z,2.88
2023-06-29T19:02:31.523Z,2.53
2023-06-29T19:04:58.129Z,2.70
2023-06-29T19:07:24.936Z,5.68
2023-06-29T19:09:51.687Z,4.43
2023-06-29T19:12:18.404Z,4.03
2023-06-29T19:14:45.070Z,4.25
2023-06-29T19:17:11.753Z,5.90
2023-06-29T19:19:39.051Z,4.60
2023-06-29T19:22:05.876Z,5.93
2023-06-29T19:24:32.532Z,6.07
2023-06-29T19:26:59.329Z,6.72
2023-06-29T19:29:25.977Z,4.28
2023-06-29T19:31:52.783Z,5.32
2023-06-29T19:34:19.428Z,5.47
2023-06-29T19:36:47.705Z,6.57
2023-06-29T19:39:14.394Z,7.30
2023-06-29T19:41:41.084Z,5.00
2023-06-29T19:44:08.062Z,5.40
2023-06-29T19:46:34.919Z,7.20
2023-06-29T19:49:01.598Z,5.05
2023-06-29T19:51:35.013Z,6.57
2023-06-29T19:54:02.590Z,3.90
2023-06-29T19:56:31.007Z,6.25
2023-06-29T19:58:58.692Z,3.58
2023-06-29T20:01:26.265Z,7.60
2023-06-29T20:03:54.094Z,4.68
2023-06-29T20:06:21.276Z,6.30
2023-06-29T20:08:48.921Z,4.88
2023-06-29T20:11:16.216Z,5.32
2023-06-29T20:13:43.638Z,10.52
2023-06-29T20:16:12.071Z,6.18
2023-06-29T20:18:40.087Z,5.90
2023-06-29T20:21:07.582Z,6.97
2023-06-29T20:23:35.262Z,5.03
2023-06-29T20:26:02.797Z,3.00
2023-06-29T20:28:30.300Z,4.03
2023-06-29T20:30:57.719Z,6.47
2023-06-29T20:33:24.877Z,6.05
2023-06-29T20:35:52.068Z,6.60
2023-06-29T20:38:19.475Z,6.78
2023-06-29T20:40:47.260Z,4.70
2023-06-29T20:43:16.279Z,8.43
2023-06-29T20:45:47.560Z,5.60
2023-06-29T20:48:15.439Z,6.40
2023-06-29T20:50:43.009Z,5.43
2023-06-29T20:53:10.387Z,6.97
2023-06-29T20:55:37.750Z,6.20
2023-06-29T20:58:05.115Z,5.47
2023-06-29T21:00:34.427Z,6.07
2023-06-29T21:03:01.490Z,6.88
2023-06-29T21:05:30.039Z,6.82
2023-06-29T21:07:57.380Z,3.47
2023-06-29T21:10:25.914Z,4.72
2023-06-29T21:12:53.506Z,4.18
2023-06-29T21:15:21.595Z,6.40
2023-06-29T21:17:49.104Z,7.80
2023-06-29T21:20:16.675Z,5.90
2023-06-29T21:22:46.767Z,3.95
2023-06-29T21:25:15.908Z,5.45
2023-06-29T21:27:43.960Z,6.70
2023-06-29T21:30:11.766Z,3.17
2023-06-29T21:32:40.016Z,3.92
2023-06-29T21:35:08.629Z,4.38
2023-06-29T21:37:37.636Z,7.75
2023-06-29T21:40:07.382Z,5.35
2023-06-29T21:42:36.380Z,4.60
2023-06-29T21:45:04.969Z,5.43
2023-06-29T21:47:33.467Z,8.50
2023-06-29T21:50:01.565Z,6.13
2023-06-29T21:52:30.055Z,3.50
2023-06-29T21:54:57.502Z,6.43
2023-06-29T21:57:25.748Z,5.22
2023-06-29T21:59:53.135Z,5.80
2023-06-29T22:02:20.831Z,7.72
2023-06-29T22:04:47.795Z,5.03
2023-06-29T22:07:17.176Z,5.55
2023-06-29T22:09:44.882Z,5.03
2023-06-29T22:12:12.273Z,4.82
2023-06-29T22:14:40.168Z,6.13
2023-06-29T22:17:08.243Z,4.10
2023-06-29T22:19:38.213Z,3.97
2023-06-29T22:22:08.605Z,5.82
2023-06-29T22:24:36.418Z,5.65
2023-06-29T22:27:04.590Z,4.18
2023-06-29T22:29:33.342Z,5.90
2023-06-29T22:32:01.737Z,4.50
2023-06-29T22:34:29.030Z,7.10
2023-06-29T22:36:56.996Z,5.25
2023-06-29T22:39:25.768Z,3.78
2023-06-29T22:41:53.285Z,4.40
2023-06-29T22:44:22.596Z,3.83
2023-06-29T22:46:50.991Z,4.72
2023-06-29T22:49:18.625Z,3.35
2023-06-29T22:51:47.260Z,4.50
2023-06-29T22:54:14.727Z,4.15
2023-06-29T22:56:42.437Z,4.65
2023-06-29T22:59:11.191Z,5.95
2023-06-29T23:01:42.772Z,3.28
2023-06-29T23:04:10.648Z,2.95
2023-06-29T23:06:41.977Z,5.32
2023-06-29T23:09:10.859Z,2.42
2023-06-29T23:11:39.754Z,3.28
2023-06-29T23:14:15.803Z,4.55
2023-06-29T23:16:43.545Z,4.63
2023-06-29T23:19:11.199Z,3.80
2023-06-29T23:21:38.709Z,2.50
2023-06-29T23:24:06.875Z,2.88
2023-06-29T23:26:34.011Z,2.92
2023-06-29T23:29:01.952Z,2.83
2023-06-29T23:31:30.461Z,5.57
2023-06-29T23:33:58.383Z,4.78
2023-06-29T23:36:25.830Z,3.95
2023-06-29T23:38:55.753Z,3.95
2023-06-29T23:41:28.960Z,3.03
2023-06-29T23:44:04.219Z,4.55
2023-06-29T23:46:45.715Z,3.00
2023-06-29T23:49:15.182Z,3.22
2023-06-29T23:51:43.482Z,4.13
2023-06-29T23:54:13.857Z,2.65
2023-06-29T23:56:42.619Z,2.45
2023-06-29T23:59:12.925Z,4.38
